createdAt,value
2019-01-16T00:00:03.536Z,9.2
2019-01-16T00:00:53.231Z,9.3
2019-01-16T00:01:43.062Z,9.3
2019-01-16T00:02:33.633Z,9.3
2019-01-16T00:03:24.071Z,9.2
2019-01-16T00:04:13.226Z,9.2
2019-01-16T00:05:03.524Z,9.2
2019-01-16T00:05:53.307Z,9.2
2019-01-16T00:06:44.573Z,9.2
2019-01-16T00:07:34.261Z,9.2
2019-01-16T00:08:24.031Z,9.2
2019-01-16T00:09:13.532Z,9.2
2019-01-16T00:10:03.971Z,9.2
2019-01-16T00:10:53.365Z,9.2
2019-01-16T00:11:43.968Z,9.3
2019-01-16T00:12:33.796Z,9.3
2019-01-16T00:13:24.067Z,9.3
2019-01-16T00:14:13.298Z,9.2
2019-01-16T00:15:03.989Z,9.2
2019-01-16T00:15:54.047Z,9.2
2019-01-16T00:16:43.836Z,9.2
2019-01-16T00:17:33.935Z,9.2
2019-01-16T00:18:25.203Z,9.2
2019-01-16T00:19:14.768Z,9.2
2019-01-16T00:20:04.623Z,9.2
2019-01-16T00:20:55.167Z,9.2
2019-01-16T00:21:44.631Z,9.2
2019-01-16T00:22:34.982Z,9.3
2019-01-16T00:23:24.807Z,9.2
2019-01-16T00:24:15.377Z,9.2
2019-01-16T00:25:04.313Z,9.1
2019-01-16T00:25:55.497Z,9.2
2019-01-16T00:26:44.984Z,9.2
2019-01-16T00:27:35.321Z,9.2
2019-01-16T00:28:24.827Z,9.1
2019-01-16T00:29:15.691Z,9.2
2019-01-16T00:30:05.592Z,9.2
2019-01-16T00:30:55.537Z,9.2
2019-01-16T00:31:45.889Z,9.2
2019-01-16T00:32:35.369Z,9.2
2019-01-16T00:33:26.077Z,9.2
2019-01-16T00:34:15.827Z,9.3
2019-01-16T00:35:05.651Z,9.2
2019-01-16T00:35:54.556Z,9.2
2019-01-16T00:36:45.432Z,9.2
2019-01-16T00:37:35.529Z,9.2
2019-01-16T00:38:25.561Z,9.2
2019-01-16T00:39:15.632Z,9.2
2019-01-16T00:40:05.404Z,9.2
2019-01-16T00:40:56.244Z,9.2
2019-01-16T00:41:45.739Z,9.2
2019-01-16T00:42:36.037Z,9.2
2019-01-16T00:43:25.326Z,9.2
2019-01-16T00:44:15.891Z,9.2
2019-01-16T00:45:05.676Z,9.2
2019-01-16T00:45:55.707Z,9.2
2019-01-16T00:46:46.331Z,9.2
2019-01-16T00:47:36.171Z,9.2
2019-01-16T00:48:31.869Z,9.1
2019-01-16T00:49:16.868Z,9.1
2019-01-16T00:50:05.811Z,9.1
2019-01-16T00:50:56.951Z,9.2
2019-01-16T00:51:47.228Z,9.2
2019-01-16T00:52:36.453Z,9.2
2019-01-16T00:53:26.597Z,9.2
2019-01-16T00:54:17.156Z,9.1
2019-01-16T00:55:07.519Z,9.2
2019-01-16T00:55:57.508Z,9.2
2019-01-16T00:56:46.168Z,9.2
2019-01-16T00:57:37.638Z,9.2
2019-01-16T00:58:26.638Z,9.2
2019-01-16T00:59:18.543Z,9.2
2019-01-16T01:00:06.756Z,9.2
2019-01-16T01:00:57.323Z,9.2
2019-01-16T01:01:47.105Z,9.2
2019-01-16T01:02:37.117Z,9.2
2019-01-16T01:03:27.785Z,9.1
2019-01-16T01:04:17.241Z,9.1
2019-01-16T01:05:07.047Z,9.2
2019-01-16T01:05:56.875Z,9.2
2019-01-16T01:06:47.972Z,9.1
2019-01-16T01:07:37.729Z,9.1
2019-01-16T01:08:27.832Z,9.1
2019-01-16T01:09:18.211Z,9.1
2019-01-16T01:10:08.593Z,9.2
2019-01-16T01:10:57.973Z,9.2
2019-01-16T01:11:47.540Z,9.1
2019-01-16T01:12:37.797Z,9.1
2019-01-16T01:13:28.144Z,9.1
2019-01-16T01:14:18.774Z,9.1
2019-01-16T01:15:08.889Z,9.1
2019-01-16T01:15:58.567Z,9.1
2019-01-16T01:16:48.388Z,9.1
2019-01-16T01:17:38.694Z,9.1
2019-01-16T01:18:43.861Z,9.1
2019-01-16T01:19:18.537Z,9.1
2019-01-16T01:20:08.332Z,9.1
2019-01-16T01:20:58.919Z,9.1
2019-01-16T01:21:48.770Z,9.1
2019-01-16T01:22:38.834Z,9.1
2019-01-16T01:23:28.256Z,9.1
2019-01-16T01:24:19.176Z,9.1
2019-01-16T01:25:09.216Z,9.1
2019-01-16T01:25:59.353Z,9.1
2019-01-16T01:26:49.590Z,9.1
2019-01-16T01:27:39.126Z,9.1
2019-01-16T01:28:29.176Z,9.1
2019-01-16T01:29:19.751Z,9.1
2019-01-16T01:30:09.592Z,9.1
2019-01-16T01:30:59.456Z,9.1
2019-01-16T01:31:49.401Z,9.1
2019-01-16T01:32:39.706Z,9.1
2019-01-16T01:33:29.793Z,9.1
2019-01-16T01:34:22.033Z,9.1
2019-01-16T01:35:09.623Z,9.1
2019-01-16T01:36:00.221Z,9.1
2019-01-16T01:36:49.435Z,9.1
2019-01-16T01:37:40.340Z,9.1
2019-01-16T01:38:30.672Z,9.1
2019-01-16T01:39:19.594Z,9.1
2019-01-16T01:40:10.495Z,9.1
2019-01-16T01:40:59.438Z,9.1
2019-01-16T01:41:49.792Z,9.1
2019-01-16T01:42:40.120Z,9.1
2019-01-16T01:43:29.635Z,9.1
2019-01-16T01:44:20.298Z,9.2
2019-01-16T01:45:10.015Z,9.1
2019-01-16T01:46:00.923Z,9.1
2019-01-16T01:46:50.398Z,9.1
2019-01-16T01:47:39.975Z,9.1
2019-01-16T01:48:30.510Z,9.1
2019-01-16T01:49:21.204Z,9.1
2019-01-16T01:50:10.702Z,9.2
2019-01-16T01:51:00.181Z,9.2
2019-01-16T01:51:50.790Z,9.2
2019-01-16T01:52:40.517Z,9.1
2019-01-16T01:53:31.406Z,9.1
2019-01-16T01:54:21.737Z,9.1
2019-01-16T01:55:11.260Z,9.1
2019-01-16T01:56:01.574Z,9.1
2019-01-16T01:56:51.094Z,9.1
2019-01-16T01:57:40.317Z,9.1
2019-01-16T01:58:30.674Z,9.1
2019-01-16T01:59:21.000Z,9.1
2019-01-16T02:00:13.380Z,9.1
2019-01-16T02:01:01.654Z,9.1
2019-01-16T02:01:51.139Z,9.1
2019-01-16T02:02:41.819Z,9.1
2019-01-16T02:03:31.816Z,9.1
2019-01-16T02:04:21.039Z,9.2
2019-01-16T02:05:10.848Z,9.1
2019-01-16T02:06:01.421Z,9.2
2019-01-16T02:06:52.469Z,9.1
2019-01-16T02:07:42.131Z,9.2
2019-01-16T02:08:32.126Z,9.1
2019-01-16T02:09:22.189Z,9.1
2019-01-16T02:10:11.959Z,9.1
2019-01-16T02:11:01.542Z,9.1
2019-01-16T02:11:51.251Z,9.1
2019-01-16T02:12:42.476Z,9.1
2019-01-16T02:13:32.516Z,9.1
2019-01-16T02:14:22.053Z,9.1
2019-01-16T02:15:11.760Z,9.1
2019-01-16T02:16:02.373Z,9.1
2019-01-16T02:16:51.868Z,9.1
2019-01-16T02:17:41.990Z,9.1
2019-01-16T02:18:31.780Z,9.1
2019-01-16T02:19:22.980Z,9.1
2019-01-16T02:20:13.007Z,9.1
2019-01-16T02:21:02.778Z,9.1
2019-01-16T02:21:52.010Z,9.1
2019-01-16T02:22:42.338Z,9.1
2019-01-16T02:23:32.140Z,9.1
2019-01-16T02:24:22.460Z,9.1
2019-01-16T02:25:12.318Z,9.1
2019-01-16T02:26:02.372Z,9.1
2019-01-16T02:26:52.695Z,9.1
2019-01-16T02:27:44.020Z,9.1
2019-01-16T02:28:32.690Z,9.1
2019-01-16T02:29:23.850Z,9.1
2019-01-16T02:30:12.924Z,9.1
2019-01-16T02:31:03.725Z,9.1
2019-01-16T02:31:53.479Z,9.1
2019-01-16T02:32:44.127Z,9.1
2019-01-16T02:33:33.090Z,9.1
2019-01-16T02:34:23.931Z,9.1
2019-01-16T02:35:13.702Z,9.1
2019-01-16T02:36:04.014Z,9.1
2019-01-16T02:36:54.430Z,9.1
2019-01-16T02:37:44.271Z,9.1
2019-01-16T02:38:33.957Z,9.1
2019-01-16T02:39:24.587Z,9
2019-01-16T02:40:13.561Z,9.1
2019-01-16T02:41:03.060Z,9.1
2019-01-16T02:41:53.169Z,9
2019-01-16T02:42:43.740Z,9.1
2019-01-16T02:43:34.529Z,9.1
2019-01-16T02:44:24.379Z,9.1
2019-01-16T02:45:14.382Z,9
2019-01-16T02:46:04.279Z,9.1
2019-01-16T02:46:53.794Z,9.1
2019-01-16T02:47:44.281Z,9.1
2019-01-16T02:48:33.688Z,9.1
2019-01-16T02:49:23.983Z,9.1
2019-01-16T02:50:15.026Z,9.1
2019-01-16T02:51:04.830Z,9.1
2019-01-16T02:51:54.621Z,9.1
2019-01-16T02:52:45.401Z,9.1
2019-01-16T02:53:33.898Z,9.1
2019-01-16T02:54:25.374Z,9.1
2019-01-16T02:55:14.843Z,9.1
2019-01-16T02:56:04.643Z,9.1
2019-01-16T02:56:54.732Z,9
2019-01-16T02:57:44.791Z,9
2019-01-16T02:58:35.638Z,9.1
2019-01-16T02:59:25.360Z,9.1
2019-01-16T03:00:15.141Z,9.1
2019-01-16T03:01:05.993Z,9.1
2019-01-16T03:01:55.893Z,9.1
2019-01-16T03:02:45.868Z,9
2019-01-16T03:03:35.060Z,9.1
2019-01-16T03:04:25.981Z,9.1
2019-01-16T03:05:15.610Z,9.1
2019-01-16T03:08:49.318Z,9
2019-01-16T03:09:39.300Z,9
2019-01-16T03:10:29.625Z,9.1
2019-01-16T03:11:19.898Z,9
2019-01-16T03:12:10.346Z,9
2019-01-16T03:12:59.747Z,9
2019-01-16T03:13:49.286Z,9
2019-01-16T03:14:40.279Z,9
2019-01-16T03:15:30.191Z,9.1
2019-01-16T03:16:19.697Z,9
2019-01-16T03:17:10.337Z,9
2019-01-16T03:17:59.819Z,9
2019-01-16T03:18:50.403Z,9.1
2019-01-16T03:19:40.042Z,9.1
2019-01-16T03:20:30.344Z,9
2019-01-16T03:21:20.885Z,9.1
2019-01-16T03:22:10.439Z,9
2019-01-16T03:23:00.984Z,9
2019-01-16T03:23:50.245Z,9
2019-01-16T03:24:40.352Z,9.1
2019-01-16T03:25:30.605Z,9.1
2019-01-16T03:26:20.747Z,9
2019-01-16T03:27:10.712Z,9
2019-01-16T03:28:01.325Z,9
2019-01-16T03:28:51.087Z,9.1
2019-01-16T03:29:40.594Z,9
2019-01-16T03:30:31.545Z,9
2019-01-16T03:31:21.363Z,9
2019-01-16T03:32:11.952Z,9
2019-01-16T03:33:01.419Z,9
2019-01-16T03:33:50.578Z,9
2019-01-16T03:34:41.058Z,9
2019-01-16T03:35:31.545Z,9
2019-01-16T03:36:20.666Z,9
2019-01-16T03:37:11.099Z,9
2019-01-16T03:38:01.988Z,9
2019-01-16T03:38:51.867Z,9
2019-01-16T03:39:40.918Z,9
2019-01-16T03:40:31.866Z,9
2019-01-16T03:41:21.678Z,9
2019-01-16T03:42:11.509Z,9
2019-01-16T03:43:01.778Z,9
2019-01-16T03:43:51.822Z,9
2019-01-16T03:44:41.670Z,9
2019-01-16T03:45:32.582Z,9
2019-01-16T03:46:22.277Z,9
2019-01-16T03:47:12.111Z,9
2019-01-16T03:48:02.437Z,9
2019-01-16T03:48:52.397Z,9
2019-01-16T03:49:42.550Z,9
2019-01-16T03:50:32.302Z,9
2019-01-16T03:51:22.352Z,9
2019-01-16T03:52:13.014Z,8.9
2019-01-16T03:53:02.469Z,9
2019-01-16T03:53:52.187Z,8.9
2019-01-16T03:54:42.857Z,9
2019-01-16T03:55:32.469Z,9
2019-01-16T03:56:22.118Z,9
2019-01-16T03:57:12.462Z,8.9
2019-01-16T03:58:03.339Z,8.9
2019-01-16T03:58:52.822Z,8.9
2019-01-16T03:59:42.982Z,9
2019-01-16T04:00:33.480Z,9
2019-01-16T04:01:23.339Z,9
2019-01-16T04:02:13.614Z,8.9
2019-01-16T04:03:03.399Z,8.9
2019-01-16T04:03:52.613Z,8.9
2019-01-16T04:04:43.299Z,8.9
2019-01-16T04:05:33.859Z,8.9
2019-01-16T04:06:23.899Z,9
2019-01-16T04:07:13.376Z,9
2019-01-16T04:08:03.166Z,9
2019-01-16T04:08:53.261Z,8.9
2019-01-16T04:09:43.864Z,8.9
2019-01-16T04:10:33.639Z,8.9
2019-01-16T04:11:23.970Z,8.9
2019-01-16T04:12:13.338Z,8.9
2019-01-16T04:13:04.063Z,8.9
2019-01-16T04:13:53.563Z,8.9
2019-01-16T04:14:43.903Z,8.9
2019-01-16T04:15:34.508Z,8.9
2019-01-16T04:16:24.701Z,8.9
2019-01-16T04:17:13.638Z,8.9
2019-01-16T04:18:04.177Z,8.9
2019-01-16T04:18:54.000Z,8.9
2019-01-16T04:19:44.803Z,8.9
2019-01-16T04:20:34.643Z,8.9
2019-01-16T04:21:24.474Z,8.9
2019-01-16T04:22:14.271Z,8.9
2019-01-16T04:23:04.358Z,8.9
2019-01-16T04:23:54.643Z,8.9
2019-01-16T04:24:44.391Z,8.9
2019-01-16T04:25:34.599Z,8.9
2019-01-16T04:26:25.061Z,8.9
2019-01-16T04:27:14.665Z,8.9
2019-01-16T04:28:04.800Z,8.9
2019-01-16T04:28:54.391Z,8.9
2019-01-16T04:29:44.950Z,8.9
2019-01-16T04:30:34.292Z,8.9
2019-01-16T04:31:25.075Z,8.9
2019-01-16T04:32:14.866Z,8.9
2019-01-16T04:33:05.251Z,8.9
2019-01-16T04:33:54.780Z,8.9
2019-01-16T04:34:45.075Z,8.9
2019-01-16T04:35:34.903Z,8.9
2019-01-16T04:36:25.445Z,8.9
2019-01-16T04:37:15.452Z,8.9
2019-01-16T04:38:05.084Z,8.9
2019-01-16T04:38:55.602Z,8.9
2019-01-16T04:39:45.627Z,8.9
2019-01-16T04:40:34.899Z,8.9
2019-01-16T04:41:25.545Z,8.9
2019-01-16T04:42:15.934Z,8.9
2019-01-16T04:43:05.646Z,8.9
2019-01-16T04:43:54.814Z,8.9
2019-01-16T04:44:45.789Z,8.9
2019-01-16T04:45:35.484Z,8.9
2019-01-16T04:46:26.108Z,8.9
2019-01-16T04:47:16.146Z,8.9
2019-01-16T04:48:05.719Z,8.9
2019-01-16T04:48:56.053Z,8.9
2019-01-16T04:49:45.822Z,8.9
2019-01-16T04:50:36.111Z,8.9
2019-01-16T04:51:26.208Z,8.9
2019-01-16T04:52:16.219Z,8.9
2019-01-16T04:53:06.543Z,8.9
2019-01-16T04:53:56.351Z,8.9
2019-01-16T04:54:46.141Z,8.9
2019-01-16T04:55:36.416Z,8.9
2019-01-16T04:56:26.000Z,8.9
2019-01-16T04:57:16.008Z,8.9
2019-01-16T04:58:06.597Z,8.9
2019-01-16T04:58:56.985Z,8.9
2019-01-16T04:59:46.166Z,8.9
2019-01-16T05:00:36.853Z,8.9
2019-01-16T05:01:26.839Z,8.9
2019-01-16T05:02:17.203Z,8.9
2019-01-16T05:03:06.678Z,8.9
2019-01-16T05:03:56.993Z,8.9
2019-01-16T05:04:47.333Z,8.9
2019-01-16T05:05:36.265Z,8.9
2019-01-16T05:06:27.180Z,8.9
2019-01-16T05:07:17.258Z,8.9
2019-01-16T05:08:06.745Z,8.9
2019-01-16T05:08:58.135Z,8.9
2019-01-16T05:09:47.602Z,8.9
2019-01-16T05:10:37.383Z,8.9
2019-01-16T05:11:26.738Z,8.9
2019-01-16T05:12:17.585Z,8.9
2019-01-16T05:13:08.367Z,8.9
2019-01-16T05:13:58.418Z,8.9
2019-01-16T05:14:47.938Z,8.9
2019-01-16T05:15:38.270Z,8.9
2019-01-16T05:16:28.044Z,8.9
2019-01-16T05:17:18.096Z,8.9
2019-01-16T05:18:07.665Z,8.9
2019-01-16T05:18:58.522Z,8.9
2019-01-16T05:19:48.832Z,8.9
2019-01-16T05:20:37.852Z,8.9
2019-01-16T05:21:27.652Z,8.9
2019-01-16T05:22:17.969Z,8.9
2019-01-16T05:23:08.263Z,8.9
2019-01-16T05:23:58.627Z,8.9
2019-01-16T05:24:48.886Z,8.9
2019-01-16T05:25:38.365Z,8.9
2019-01-16T05:26:31.264Z,8.9
2019-01-16T05:27:18.582Z,8.9
2019-01-16T05:28:09.112Z,8.9
2019-01-16T05:28:58.424Z,8.9
2019-01-16T05:29:49.319Z,8.9
2019-01-16T05:30:38.972Z,8.9
2019-01-16T05:31:29.361Z,8.9
2019-01-16T05:32:19.661Z,8.9
2019-01-16T05:33:09.168Z,8.9
2019-01-16T05:33:59.227Z,8.9
2019-01-16T05:34:49.798Z,8.9
2019-01-16T05:35:39.891Z,8.9
2019-01-16T05:36:29.394Z,8.9
2019-01-16T05:37:19.731Z,8.9
2019-01-16T05:38:09.808Z,8.9
2019-01-16T05:38:59.830Z,8.9
2019-01-16T05:39:49.628Z,8.9
2019-01-16T05:40:39.948Z,8.9
2019-01-16T05:41:29.741Z,8.9
2019-01-16T05:42:20.313Z,8.9
2019-01-16T05:43:10.126Z,8.9
2019-01-16T05:44:00.465Z,8.9
2019-01-16T05:44:50.520Z,8.8
2019-01-16T05:45:39.973Z,8.9
2019-01-16T05:46:30.273Z,8.9
2019-01-16T05:47:20.086Z,8.9
2019-01-16T05:48:10.487Z,8.9
2019-01-16T05:48:59.960Z,8.8
2019-01-16T05:49:55.150Z,8.9
2019-01-16T05:50:39.840Z,8.9
2019-01-16T05:51:30.448Z,8.9
2019-01-16T05:52:20.419Z,8.9
2019-01-16T05:53:10.298Z,8.9
2019-01-16T05:54:00.610Z,8.9
2019-01-16T05:54:50.155Z,8.9
2019-01-16T05:55:39.896Z,8.8
2019-01-16T05:56:30.199Z,8.9
2019-01-16T05:57:20.820Z,8.9
2019-01-16T05:58:11.126Z,8.8
2019-01-16T05:59:00.882Z,8.9
2019-01-16T05:59:50.924Z,8.8
2019-01-16T06:00:41.349Z,8.9
2019-01-16T06:01:31.326Z,8.9
2019-01-16T06:02:21.750Z,8.9
2019-01-16T06:03:11.672Z,8.8
2019-01-16T06:04:01.744Z,8.9
2019-01-16T06:06:49.337Z,8.9
2019-01-16T06:07:38.853Z,8.9
2019-01-16T06:08:30.020Z,8.9
2019-01-16T06:09:21.542Z,8.9
2019-01-16T06:10:10.163Z,8.9
2019-01-16T06:11:00.208Z,8.9
2019-01-16T06:11:50.185Z,8.9
2019-01-16T06:12:39.717Z,8.9
2019-01-16T06:13:29.512Z,8.9
2019-01-16T06:14:20.155Z,8.9
2019-01-16T06:15:10.150Z,8.9
2019-01-16T06:16:00.515Z,8.9
2019-01-16T06:16:50.267Z,8.9
2019-01-16T06:17:40.009Z,8.9
2019-01-16T06:18:30.477Z,8.8
2019-01-16T06:19:19.624Z,8.9
2019-01-16T06:20:10.484Z,8.8
2019-01-16T06:21:00.537Z,8.9
2019-01-16T06:21:50.852Z,8.9
2019-01-16T06:22:40.640Z,8.9
2019-01-16T06:23:30.830Z,8.9
2019-01-16T06:24:20.784Z,8.9
2019-01-16T06:25:10.950Z,8.9
2019-01-16T06:26:00.901Z,8.9
2019-01-16T06:26:50.357Z,8.9
2019-01-16T06:27:41.324Z,8.9
2019-01-16T06:28:31.416Z,8.9
2019-01-16T06:29:20.823Z,8.9
2019-01-16T06:30:11.414Z,8.9
2019-01-16T06:31:00.691Z,8.9
2019-01-16T06:31:50.242Z,8.9
2019-01-16T06:32:40.826Z,8.9
2019-01-16T06:33:31.236Z,8.9
2019-01-16T06:34:21.554Z,8.9
2019-01-16T06:35:11.786Z,8.9
2019-01-16T06:36:01.589Z,8.9
2019-01-16T06:36:50.900Z,8.9
2019-01-16T06:37:41.903Z,8.9
2019-01-16T06:38:31.953Z,8.9
2019-01-16T06:39:22.075Z,8.9
2019-01-16T06:40:11.811Z,8.9
2019-01-16T06:41:01.574Z,8.9
2019-01-16T06:41:51.460Z,9
2019-01-16T06:42:41.988Z,8.9
2019-01-16T06:43:32.018Z,8.9
2019-01-16T06:44:21.835Z,8.9
2019-01-16T06:45:11.318Z,9
2019-01-16T06:46:01.898Z,9
2019-01-16T06:46:52.580Z,9
2019-01-16T06:47:42.016Z,9
2019-01-16T06:48:31.861Z,9
2019-01-16T06:49:21.925Z,9
2019-01-16T06:50:20.340Z,9
2019-01-16T06:51:02.518Z,9
2019-01-16T06:51:52.855Z,9
2019-01-16T06:52:42.685Z,8.9
2019-01-16T06:53:32.424Z,9
2019-01-16T06:54:23.046Z,8.9
2019-01-16T06:55:12.588Z,9
2019-01-16T06:56:02.875Z,9
2019-01-16T06:56:52.971Z,9
2019-01-16T06:57:42.759Z,8.9
2019-01-16T06:58:32.767Z,8.9
2019-01-16T06:59:22.055Z,8.9
2019-01-16T07:00:13.435Z,9
2019-01-16T07:01:02.984Z,9
2019-01-16T07:01:53.037Z,9
2019-01-16T07:02:43.562Z,9
2019-01-16T07:03:33.169Z,9
2019-01-16T07:04:23.132Z,9
2019-01-16T07:06:49.204Z,9
2019-01-16T07:07:39.029Z,9
2019-01-16T07:08:28.616Z,9
2019-01-16T07:09:19.961Z,9
2019-01-16T07:10:09.250Z,9
2019-01-16T07:10:59.866Z,9
2019-01-16T07:11:49.351Z,9
2019-01-16T07:12:39.396Z,9
2019-01-16T07:13:30.231Z,8.9
2019-01-16T07:14:20.336Z,8.9
2019-01-16T07:15:10.093Z,9
2019-01-16T07:16:00.126Z,8.9
2019-01-16T07:16:49.891Z,8.9
2019-01-16T07:17:40.511Z,9
2019-01-16T07:18:30.304Z,8.9
2019-01-16T07:19:20.636Z,9
2019-01-16T07:20:18.131Z,9
2019-01-16T07:21:00.173Z,9.1
2019-01-16T07:21:50.795Z,9.1
2019-01-16T07:22:40.573Z,9.1
2019-01-16T07:23:30.643Z,9.1
2019-01-16T07:24:20.475Z,9.1
2019-01-16T07:25:10.754Z,9.1
2019-01-16T07:26:01.078Z,9.1
2019-01-16T07:26:50.307Z,9.2
2019-01-16T07:27:41.218Z,9.2
2019-01-16T07:28:30.765Z,9.3
2019-01-16T07:29:20.548Z,9.3
2019-01-16T07:30:10.615Z,9.3
2019-01-16T07:31:00.374Z,9.3
2019-01-16T07:31:50.755Z,9.3
2019-01-16T07:32:40.560Z,9.3
2019-01-16T07:33:31.158Z,9.3
2019-01-16T07:34:20.880Z,9.3
2019-01-16T07:35:11.258Z,9.4
2019-01-16T07:36:01.005Z,9.4
2019-01-16T07:36:50.760Z,9.4
2019-01-16T07:37:41.094Z,9.4
2019-01-16T07:38:32.954Z,9.4
2019-01-16T07:39:21.977Z,9.4
2019-01-16T07:40:11.749Z,9.4
2019-01-16T07:41:01.597Z,9.5
2019-01-16T07:41:51.940Z,9.5
2019-01-16T07:42:50.138Z,9.5
2019-01-16T07:43:32.110Z,9.5
2019-01-16T07:44:21.797Z,9.6
2019-01-16T07:45:11.895Z,9.6
2019-01-16T07:46:02.119Z,9.6
2019-01-16T07:46:53.279Z,9.7
2019-01-16T07:47:42.259Z,9.7
2019-01-16T07:48:32.804Z,9.8
2019-01-16T07:49:22.625Z,9.8
2019-01-16T07:50:20.216Z,9.8
2019-01-16T07:51:02.479Z,9.9
2019-01-16T07:51:52.587Z,9.9
2019-01-16T07:52:41.633Z,10
2019-01-16T07:53:32.937Z,10.1
2019-01-16T07:54:22.164Z,10.1
2019-01-16T07:55:13.063Z,10.2
2019-01-16T07:56:02.555Z,10.3
2019-01-16T07:56:52.655Z,10.4
2019-01-16T07:57:42.931Z,10.4
2019-01-16T07:58:33.004Z,10.5
2019-01-16T07:59:29.894Z,10.6
2019-01-16T08:00:13.128Z,10.6
2019-01-16T08:01:03.204Z,10.6
2019-01-16T08:01:53.511Z,10.6
2019-01-16T08:02:43.310Z,10.6
2019-01-16T08:03:33.331Z,10.6
2019-01-16T08:04:23.170Z,10.6
2019-01-16T08:05:13.441Z,10.6
2019-01-16T08:06:03.903Z,10.6
2019-01-16T08:06:53.293Z,10.6
2019-01-16T08:07:43.910Z,10.6
2019-01-16T08:08:33.675Z,10.6
2019-01-16T08:09:23.805Z,10.6
2019-01-16T08:10:12.958Z,10.6
2019-01-16T08:11:03.310Z,10.6
2019-01-16T08:11:53.693Z,10.6
2019-01-16T08:12:44.262Z,10.7
2019-01-16T08:13:34.355Z,10.7
2019-01-16T08:14:24.343Z,10.6
2019-01-16T08:15:14.409Z,10.7
2019-01-16T08:16:03.902Z,10.7
2019-01-16T08:16:53.757Z,10.7
2019-01-16T08:17:44.642Z,10.7
2019-01-16T08:18:34.663Z,10.7
2019-01-16T08:19:24.759Z,10.7
2019-01-16T08:20:14.249Z,10.8
2019-01-16T08:21:04.549Z,10.8
2019-01-16T08:21:53.472Z,10.8
2019-01-16T08:22:44.932Z,10.8
2019-01-16T08:23:34.687Z,10.8
2019-01-16T08:24:25.029Z,10.8
2019-01-16T08:25:15.139Z,10.9
2019-01-16T08:26:04.879Z,10.9
2019-01-16T08:26:54.712Z,10.9
2019-01-16T08:27:44.972Z,10.9
2019-01-16T08:28:35.054Z,10.9
2019-01-16T08:29:24.812Z,10.9
2019-01-16T08:30:15.159Z,10.9
2019-01-16T08:31:04.931Z,10.9
2019-01-16T08:31:54.996Z,11
2019-01-16T08:32:45.106Z,11
2019-01-16T08:33:34.801Z,11.1
2019-01-16T08:34:25.139Z,11.1
2019-01-16T08:35:15.760Z,11.1
2019-01-16T08:36:05.264Z,11.1
2019-01-16T08:36:55.636Z,11.1
2019-01-16T08:37:45.656Z,11.1
2019-01-16T08:38:35.526Z,11.1
2019-01-16T08:39:25.554Z,11.1
2019-01-16T08:40:15.884Z,11.1
2019-01-16T08:41:05.592Z,11.1
2019-01-16T08:41:55.671Z,11.1
2019-01-16T08:42:46.265Z,11.2
2019-01-16T08:43:36.328Z,11.2
2019-01-16T08:44:26.411Z,11.2
2019-01-16T08:45:16.193Z,11.2
2019-01-16T08:46:05.943Z,11.2
2019-01-16T08:46:56.538Z,11.3
2019-01-16T08:47:46.113Z,11.3
2019-01-16T08:48:36.171Z,11.3
2019-01-16T08:49:26.497Z,11.3
2019-01-16T08:50:16.233Z,11.3
2019-01-16T08:51:06.912Z,11.3
2019-01-16T08:51:56.392Z,11.3
2019-01-16T08:52:46.926Z,11.3
2019-01-16T08:53:38.585Z,11.3
2019-01-16T08:54:26.862Z,11.3
2019-01-16T08:55:17.107Z,11.3
2019-01-16T08:56:07.175Z,11.3
2019-01-16T08:56:57.219Z,11.3
2019-01-16T08:57:47.292Z,11.4
2019-01-16T08:58:37.447Z,11.4
2019-01-16T08:59:27.140Z,11.4
2019-01-16T09:00:17.467Z,11.4
2019-01-16T09:01:06.385Z,11.5
2019-01-16T09:01:57.285Z,11.6
2019-01-16T09:02:47.344Z,11.6
2019-01-16T09:03:37.694Z,11.6
2019-01-16T09:04:27.739Z,11.7
2019-01-16T09:05:17.262Z,11.7
2019-01-16T09:06:07.064Z,11.7
2019-01-16T09:06:57.962Z,11.7
2019-01-16T09:07:47.947Z,11.7
2019-01-16T09:08:36.894Z,11.8
2019-01-16T09:09:27.055Z,11.8
2019-01-16T09:10:17.356Z,11.8
2019-01-16T09:11:07.906Z,11.8
2019-01-16T09:11:57.756Z,11.8
2019-01-16T09:12:46.991Z,11.8
2019-01-16T09:13:38.366Z,11.8
2019-01-16T09:14:27.904Z,11.8
2019-01-16T09:15:17.951Z,11.8
2019-01-16T09:16:07.704Z,11.8
2019-01-16T09:16:58.349Z,11.8
2019-01-16T09:17:50.178Z,11.8
2019-01-16T09:18:38.449Z,11.8
2019-01-16T09:19:28.271Z,11.8
2019-01-16T09:20:18.804Z,11.8
2019-01-16T09:21:08.586Z,11.8
2019-01-16T09:21:58.919Z,11.7
2019-01-16T09:22:50.834Z,11.7
2019-01-16T09:23:38.473Z,11.7
2019-01-16T09:24:27.988Z,11.7
2019-01-16T09:25:18.676Z,11.7
2019-01-16T09:26:08.920Z,11.7
2019-01-16T09:26:58.681Z,11.7
2019-01-16T09:27:49.030Z,11.7
2019-01-16T09:28:39.068Z,11.7
2019-01-16T09:29:29.151Z,11.7
2019-01-16T09:30:18.689Z,11.7
2019-01-16T09:31:08.736Z,11.7
2019-01-16T09:31:59.307Z,11.7
2019-01-16T09:32:48.880Z,11.7
2019-01-16T09:33:38.920Z,11.7
2019-01-16T09:34:29.792Z,11.7
2019-01-16T09:35:19.332Z,11.7
2019-01-16T09:36:09.596Z,11.7
2019-01-16T09:36:59.738Z,11.7
2019-01-16T09:37:49.718Z,11.7
2019-01-16T09:38:39.498Z,11.7
2019-01-16T09:39:29.860Z,11.7
2019-01-16T09:40:20.165Z,11.7
2019-01-16T09:41:09.227Z,11.7
2019-01-16T09:41:59.762Z,11.7
2019-01-16T09:42:49.342Z,11.7
2019-01-16T09:43:40.390Z,11.7
2019-01-16T09:44:29.460Z,11.8
2019-01-16T09:45:20.092Z,11.7
2019-01-16T09:46:09.297Z,11.7
2019-01-16T09:46:59.626Z,11.7
2019-01-16T09:47:50.224Z,11.7
2019-01-16T09:48:38.865Z,11.7
2019-01-16T09:49:29.464Z,11.7
2019-01-16T09:50:20.069Z,11.8
2019-01-16T09:51:09.926Z,11.8
2019-01-16T09:52:00.254Z,11.8
2019-01-16T09:52:50.263Z,11.8
2019-01-16T09:53:40.586Z,11.8
2019-01-16T09:54:30.144Z,11.8
2019-01-16T09:55:20.409Z,11.7
2019-01-16T09:56:10.794Z,11.8
2019-01-16T09:57:00.524Z,11.7
2019-01-16T09:57:50.906Z,11.7
2019-01-16T09:58:40.631Z,11.8
2019-01-16T09:59:30.466Z,11.7
2019-01-16T10:00:20.251Z,11.8
2019-01-16T10:01:10.541Z,11.8
2019-01-16T10:02:00.576Z,11.8
2019-01-16T10:02:50.906Z,11.8
2019-01-16T10:03:41.459Z,11.8
2019-01-16T10:04:31.296Z,11.8
2019-01-16T10:05:21.351Z,11.8
2019-01-16T10:07:48.201Z,11.8
2019-01-16T10:08:38.850Z,11.8
2019-01-16T10:09:28.840Z,11.8
2019-01-16T10:10:19.263Z,11.8
2019-01-16T10:11:08.968Z,11.8
2019-01-16T10:11:59.583Z,11.8
2019-01-16T10:12:49.643Z,11.9
2019-01-16T10:13:39.140Z,11.9
2019-01-16T10:14:29.815Z,11.9
2019-01-16T10:15:19.585Z,11.8
2019-01-16T10:16:09.325Z,11.8
2019-01-16T10:17:00.197Z,11.9
2019-01-16T10:17:49.431Z,11.8
2019-01-16T10:18:38.980Z,11.9
2019-01-16T10:19:29.860Z,11.9
2019-01-16T10:20:19.597Z,11.9
2019-01-16T10:21:10.484Z,11.9
2019-01-16T10:21:59.692Z,11.9
2019-01-16T10:22:50.142Z,11.9
2019-01-16T10:23:40.079Z,11.9
2019-01-16T10:24:29.959Z,11.9
2019-01-16T10:25:20.505Z,11.9
2019-01-16T10:26:10.540Z,11.9
2019-01-16T10:27:00.317Z,11.9
2019-01-16T10:27:50.162Z,11.9
2019-01-16T10:28:39.679Z,11.9
2019-01-16T10:29:30.011Z,11.9
2019-01-16T10:30:19.160Z,11.9
2019-01-16T10:31:10.022Z,11.9
2019-01-16T10:31:59.981Z,11.8
2019-01-16T10:32:50.257Z,11.9
2019-01-16T10:33:40.789Z,11.9
2019-01-16T10:34:31.106Z,11.9
2019-01-16T10:35:20.973Z,11.9
2019-01-16T10:36:10.714Z,11.9
2019-01-16T10:37:01.559Z,11.8
2019-01-16T10:37:51.070Z,11.9
2019-01-16T10:38:41.101Z,11.9
2019-01-16T10:39:31.505Z,11.8
2019-01-16T10:40:21.838Z,11.9
2019-01-16T10:41:11.005Z,11.8
2019-01-16T10:42:01.053Z,11.8
2019-01-16T10:42:50.828Z,11.8
2019-01-16T10:43:41.223Z,11.8
2019-01-16T10:44:31.004Z,11.8
2019-01-16T10:45:23.146Z,11.9
2019-01-16T10:46:11.158Z,11.8
2019-01-16T10:47:01.123Z,11.8
2019-01-16T10:47:51.846Z,11.8
2019-01-16T10:48:41.312Z,11.8
2019-01-16T10:49:32.111Z,11.8
2019-01-16T10:50:21.160Z,11.8
2019-01-16T10:51:11.748Z,11.8
2019-01-16T10:52:01.583Z,11.8
2019-01-16T10:52:52.430Z,11.8
2019-01-16T10:53:41.862Z,11.8
2019-01-16T10:54:31.700Z,11.8
2019-01-16T10:55:21.973Z,11.8
2019-01-16T10:56:11.765Z,11.8
2019-01-16T10:57:01.918Z,11.8
2019-01-16T10:57:52.135Z,11.8
2019-01-16T10:58:42.475Z,11.8
2019-01-16T10:59:32.538Z,11.8
2019-01-16T11:00:22.853Z,11.8
2019-01-16T11:01:11.912Z,11.8
2019-01-16T11:02:03.254Z,11.8
2019-01-16T11:02:52.184Z,11.8
2019-01-16T11:03:43.134Z,11.8
2019-01-16T11:04:32.039Z,11.8
2019-01-16T11:05:22.379Z,11.8
2019-01-16T11:06:11.851Z,11.7
2019-01-16T11:07:02.202Z,11.7
2019-01-16T11:07:52.821Z,11.7
2019-01-16T11:08:43.437Z,11.8
2019-01-16T11:09:32.950Z,11.7
2019-01-16T11:10:22.499Z,11.7
2019-01-16T11:11:21.901Z,11.7
2019-01-16T11:12:03.144Z,11.7
2019-01-16T11:12:53.751Z,11.8
2019-01-16T11:13:42.851Z,11.7
2019-01-16T11:14:33.806Z,11.8
2019-01-16T11:15:23.591Z,11.7
2019-01-16T11:16:13.959Z,11.7
2019-01-16T11:17:04.674Z,11.7
2019-01-16T11:17:53.769Z,11.7
2019-01-16T11:18:43.843Z,11.7
2019-01-16T11:19:32.766Z,11.7
2019-01-16T11:20:23.418Z,11.7
2019-01-16T11:21:19.159Z,11.8
2019-01-16T11:22:04.039Z,11.7
2019-01-16T11:22:53.838Z,11.8
2019-01-16T11:23:44.166Z,11.8
2019-01-16T11:24:34.001Z,11.8
2019-01-16T11:25:24.873Z,11.8
2019-01-16T11:26:14.338Z,11.8
2019-01-16T11:27:03.843Z,11.8
2019-01-16T11:27:54.178Z,11.8
2019-01-16T11:28:44.542Z,11.8
2019-01-16T11:29:34.423Z,11.8
2019-01-16T11:30:24.908Z,11.8
2019-01-16T11:31:14.447Z,11.8
2019-01-16T11:32:05.093Z,11.8
2019-01-16T11:32:55.135Z,11.8
2019-01-16T11:33:44.558Z,11.8
2019-01-16T11:34:34.351Z,11.8